KHUM/HUM METAR and TAF weather

Enter ICAO airport designator
Station Type Date Time Source
KHUM METAR 2021/01/27 12:47 UTC NOAA

KHUM 271247Z 23008KT 2SM BR OVC002 21/21 A2996


Station Type Date Time Source
KHUM Decoded METAR 2021/01/27 12:47 UTC NOAA

Houma-Terrebonne, LA, United States (KHUM) 29-34N 090-40W
Jan 27, 2021 - 07:47 AM EST / 2021.01.27 1247 UTC
Wind: from the SW (230 degrees) at 9 MPH (8 KT):0
Visibility: 2 mile(s):0
Sky conditions: overcast
Weather: mist
Temperature: 69 F (21 C)
Dew Point: 69 F (21 C)
Relative Humidity: 100%
Pressure (altimeter): 29.96 in. Hg (1014 hPa)
ob: KHUM 271247Z 23008KT 2SM BR OVC002 21/21 A2996
cycle: 13

Station Type Date Time Source
KHUM TAF 2021/01/27 12:33 UTC NOAA

TAF KHUM 271130Z 2712/2812 25007KT 5SM BR VCSH OVC004
FM271400 27007KT 3SM BR VCSH SCT003 BKN015
FM271700 33012KT P6SM SCT008 BKN020
FM271900 33015KT P6SM FEW015 SCT030
FM272100 34014G22KT P6SM FEW040 SCT250
FM280400 01010KT P6SM FEW250

Example: see airport list